Time;durP1;ratioP1;P1;durP2;ratioP2;P2;SDS_P1;SDS_P2;PMS_P1;PMS_P2;Temp;Humidity;BMP_temperature;BMP_pressure;BME280_temperature;BME280_humidity;BME280_pressure;Samples;Min_cycle;Max_cycle;Signal;HPM_P1;HPM_P2
2023/04/23 00:01:01;;;;;;;17.08;10.57;;;;;;;;;;5076947;28;20478;-71
2023/04/23 00:03:27;;;;;;;15.63;10.43;;;;;;;;;;5076631;28;20433;-72
2023/04/23 00:05:56;;;;;;;17.58;10.45;;;;;;;;;;5059146;28;20489;-72
2023/04/23 00:08:22;;;;;;;17.60;10.68;;;;;;;;;;5076798;28;20032;-72
2023/04/23 00:10:47;;;;;;;16.08;9.20;;;;;;;;;;5076396;28;20029;-72
2023/04/23 00:13:13;;;;;;;13.55;9.52;;;;;;;;;;5058536;28;20427;-72
2023/04/23 00:15:38;;;;;;;15.02;9.93;;;;;;;;;;5076696;28;20499;-72
2023/04/23 00:18:04;;;;;;;15.15;9.75;;;;;;;;;;5076707;28;20446;-72
2023/04/23 00:20:29;;;;;;;15.30;9.77;;;;;;;;;;5076056;28;20028;-72
2023/04/23 00:22:54;;;;;;;14.02;9.60;;;;;;;;;;5076542;28;20107;-72
2023/04/23 00:25:20;;;;;;;15.25;9.43;;;;;;;;;;5076031;28;20474;-72
2023/04/23 00:27:46;;;;;;;15.20;9.68;;;;;;;;;;5076509;28;20032;-72
2023/04/23 00:30:12;;;;;;;15.20;9.48;;;;;;;;;;5058145;28;20078;-63
2023/04/23 00:32:37;;;;;;;13.82;9.15;;;;;;;;;;5076395;28;20024;-63
2023/04/23 00:35:03;;;;;;;12.15;8.90;;;;;;;;;;5058132;28;20037;-63
2023/04/23 00:37:28;;;;;;;13.38;9.10;;;;;;;;;;5076006;28;20474;-63
2023/04/23 00:39:54;;;;;;;13.18;9.40;;;;;;;;;;5056597;28;20517;-72
2023/04/23 00:42:20;;;;;;;13.48;8.60;;;;;;;;;;5075897;28;20036;-72
2023/04/23 00:44:45;;;;;;;13.05;9.05;;;;;;;;;;5075633;28;20102;-72
2023/04/23 00:47:11;;;;;;;11.43;8.07;;;;;;;;;;5076346;28;20020;-72
2023/04/23 00:49:38;;;;;;;12.40;8.60;;;;;;;;;;5057919;28;20086;-71
2023/04/23 00:52:03;;;;;;;12.35;8.60;;;;;;;;;;5075843;28;20025;-71
2023/04/23 00:54:29;;;;;;;12.30;9.07;;;;;;;;;;5058108;28;20359;-72
2023/04/23 00:56:54;;;;;;;12.35;9.07;;;;;;;;;;5057522;28;20048;-72
2023/04/23 00:59:20;;;;;;;13.55;8.52;;;;;;;;;;5075423;28;20032;-72
2023/04/23 01:01:46;;;;;;;12.77;8.93;;;;;;;;;;5075841;28;20037;-71
2023/04/23 01:04:16;;;;;;;13.02;8.85;;;;;;;;;;5057437;28;20025;-72
2023/04/23 01:06:42;;;;;;;14.02;9.30;;;;;;;;;;5075307;28;20490;-72
2023/04/23 01:09:11;;;;;;;16.58;9.23;;;;;;;;;;5076108;28;20052;-71
2023/04/23 01:11:37;;;;;;;12.82;9.23;;;;;;;;;;5057396;28;20083;-71
2023/04/23 01:14:03;;;;;;;12.60;8.90;;;;;;;;;;5057767;28;20039;-72
2023/04/23 01:16:28;;;;;;;14.93;9.73;;;;;;;;;;5058062;28;20379;-71
2023/04/23 01:18:55;;;;;;;13.73;9.30;;;;;;;;;;5076047;28;20382;-71
2023/04/23 01:21:22;;;;;;;12.15;8.43;;;;;;;;;;5075148;28;20074;-63
2023/04/23 01:23:48;;;;;;;11.98;8.60;;;;;;;;;;5075096;28;20032;-63
2023/04/23 01:26:14;;;;;;;14.05;8.77;;;;;;;;;;5037017;28;20033;-63
2023/04/23 01:28:40;;;;;;;13.57;9.38;;;;;;;;;;5053799;28;20025;-62
2023/04/23 01:31:06;;;;;;;12.70;8.10;;;;;;;;;;5055316;28;20036;-63
2023/04/23 01:33:31;;;;;;;10.52;8.20;;;;;;;;;;5054947;28;20029;-63
2023/04/23 01:35:57;;;;;;;9.88;7.80;;;;;;;;;;5054353;28;20044;-71
2023/04/23 01:38:23;;;;;;;13.52;8.20;;;;;;;;;;5055150;28;20094;-72
2023/04/23 01:40:49;;;;;;;11.38;8.30;;;;;;;;;;5055027;28;20024;-71
2023/04/23 01:43:14;;;;;;;14.15;8.70;;;;;;;;;;5053395;28;20037;-63
2023/04/23 01:45:40;;;;;;;14.43;7.93;;;;;;;;;;5053320;28;20025;-62
2023/04/23 01:48:06;;;;;;;14.05;8.30;;;;;;;;;;5054451;28;20183;-63
2023/04/23 01:50:31;;;;;;;12.80;8.45;;;;;;;;;;5054342;28;20092;-62
2023/04/23 01:52:57;;;;;;;9.65;8.05;;;;;;;;;;5053301;28;20368;-62
2023/04/23 01:55:22;;;;;;;11.98;8.02;;;;;;;;;;5053222;28;20036;-62
2023/04/23 01:57:48;;;;;;;13.07;8.38;;;;;;;;;;5054074;28;20032;-63
2023/04/23 02:00:14;;;;;;;11.73;8.18;;;;;;;;;;5054732;28;20057;-62
2023/04/23 02:02:40;;;;;;;12.43;8.07;;;;;;;;;;5054643;28;20028;-62
2023/04/23 02:05:10;;;;;;;12.07;8.50;;;;;;;;;;5053119;28;20033;-62
2023/04/23 02:07:35;;;;;;;11.95;7.95;;;;;;;;;;5053444;28;20079;-62
2023/04/23 02:10:01;;;;;;;12.63;7.95;;;;;;;;;;5054540;28;20036;-62
2023/04/23 02:12:27;;;;;;;10.95;7.90;;;;;;;;;;5054152;28;20035;-62
2023/04/23 02:14:53;;;;;;;12.23;8.07;;;;;;;;;;5054433;28;20448;-63
2023/04/23 02:17:21;;;;;;;10.45;7.50;;;;;;;;;;5053103;28;20029;-63
2023/04/23 02:19:47;;;;;;;11.80;8.13;;;;;;;;;;5052639;28;20119;-62
2023/04/23 02:22:14;;;;;;;11.13;7.47;;;;;;;;;;5052816;28;20065;-62
2023/04/23 02:24:40;;;;;;;11.27;8.23;;;;;;;;;;5054166;28;20514;-62
2023/04/23 02:27:07;;;;;;;11.60;7.70;;;;;;;;;;5055852;28;20430;-62
2023/04/23 02:29:32;;;;;;;10.43;7.43;;;;;;;;;;5073926;28;20023;-63
2023/04/23 02:31:58;;;;;;;10.25;7.75;;;;;;;;;;5074157;28;20526;-62
2023/04/23 02:34:23;;;;;;;11.27;7.75;;;;;;;;;;5074141;28;20012;-62
2023/04/23 02:36:48;;;;;;;11.90;7.97;;;;;;;;;;5074085;28;20024;-62
2023/04/23 02:39:14;;;;;;;11.63;7.55;;;;;;;;;;5055665;28;20024;-62
2023/04/23 02:41:40;;;;;;;10.50;7.03;;;;;;;;;;5073718;28;20486;-62
2023/04/23 02:44:05;;;;;;;11.70;7.03;;;;;;;;;;5073501;28;20366;-63
2023/04/23 02:46:31;;;;;;;10.25;7.32;;;;;;;;;;5055652;28;20040;-63
2023/04/23 02:48:56;;;;;;;11.05;7.75;;;;;;;;;;5074222;28;20032;-62
2023/04/23 02:51:22;;;;;;;12.60;7.43;;;;;;;;;;5055682;28;20036;-62
2023/04/23 02:53:47;;;;;;;12.05;7.57;;;;;;;;;;5073561;28;20020;-62
2023/04/23 02:56:12;;;;;;;11.90;6.85;;;;;;;;;;5073822;28;20382;-62
2023/04/23 02:58:38;;;;;;;11.82;7.38;;;;;;;;;;5073806;28;20028;-62
2023/04/23 03:01:04;;;;;;;9.68;7.32;;;;;;;;;;5055159;28;20463;-71
2023/04/23 03:03:30;;;;;;;11.57;6.90;;;;;;;;;;5054868;28;20025;-72
2023/04/23 03:05:56;;;;;;;10.18;7.38;;;;;;;;;;5039255;28;20035;-71
2023/04/23 03:08:22;;;;;;;9.88;7.05;;;;;;;;;;5055532;28;20029;-72
2023/04/23 03:10:47;;;;;;;8.20;7.05;;;;;;;;;;5055470;28;20031;-72
2023/04/23 03:13:13;;;;;;;11.15;7.25;;;;;;;;;;5055007;28;20029;-72
2023/04/23 03:15:39;;;;;;;8.15;7.22;;;;;;;;;;5055465;28;20044;-71
2023/04/23 03:18:07;;;;;;;10.20;7.07;;;;;;;;;;5073717;28;20099;-72
2023/04/23 03:20:36;;;;;;;10.20;7.78;;;;;;;;;;5038854;28;20039;-71
2023/04/23 03:23:02;;;;;;;9.95;7.15;;;;;;;;;;5073388;28;20104;-62
2023/04/23 03:25:27;;;;;;;12.25;8.45;;;;;;;;;;5055174;28;20044;-62
2023/04/23 03:27:53;;;;;;;10.13;7.18;;;;;;;;;;5038784;28;20033;-62
2023/04/23 03:30:19;;;;;;;10.25;7.38;;;;;;;;;;5055343;28;20025;-62
2023/04/23 03:32:44;;;;;;;12.40;8.18;;;;;;;;;;5073569;28;20484;-62
2023/04/23 03:35:10;;;;;;;13.38;7.72;;;;;;;;;;5038808;28;20029;-62
2023/04/23 03:37:40;;;;;;;10.23;7.43;;;;;;;;;;5054964;28;20028;-62
2023/04/23 03:40:06;;;;;;;11.95;7.50;;;;;;;;;;5035341;28;20121;-62
2023/04/23 03:42:34;;;;;;;10.68;7.03;;;;;;;;;;5036532;28;20043;-63
2023/04/23 03:44:59;;;;;;;11.15;7.30;;;;;;;;;;5055120;28;20028;-62
2023/04/23 03:47:25;;;;;;;9.40;7.22;;;;;;;;;;5055237;28;20070;-62
2023/04/23 03:49:51;;;;;;;10.88;7.45;;;;;;;;;;5055420;28;20090;-62
2023/04/23 03:52:17;;;;;;;9.40;7.57;;;;;;;;;;5055120;28;20028;-62
2023/04/23 03:54:42;;;;;;;21.13;12.48;;;;;;;;;;5055068;28;20024;-62
2023/04/23 03:57:20;;;;;;;39.80;22.77;;;;;;;;;;5039774;28;20060;-62
2023/04/23 04:00:03;;;;;;;25.55;15.95;;;;;;;;;;5055364;28;20039;-62
2023/04/23 04:02:38;;;;;;;26.67;18.33;;;;;;;;;;5073380;28;20435;-62
2023/04/23 04:05:04;;;;;;;36.78;28.58;;;;;;;;;;5054816;28;20067;-62
2023/04/23 04:07:30;;;;;;;35.80;27.58;;;;;;;;;;5055579;28;20063;-62
2023/04/23 04:09:56;;;;;;;12.05;10.23;;;;;;;;;;5073197;28;20108;-62
2023/04/23 04:12:23;;;;;;;19.25;11.55;;;;;;;;;;5055176;28;20020;-62
2023/04/23 04:14:49;;;;;;;15.77;10.50;;;;;;;;;;5075360;28;20036;-62
2023/04/23 04:17:15;;;;;;;24.67;15.10;;;;;;;;;;5041859;28;20028;-62
2023/04/23 04:19:40;;;;;;;26.10;15.20;;;;;;;;;;5076388;28;20040;-62
2023/04/23 04:22:06;;;;;;;18.48;11.73;;;;;;;;;;5058391;28;20528;-62
2023/04/23 04:24:31;;;;;;;29.17;15.82;;;;;;;;;;5056439;28;20025;-62
2023/04/23 04:27:00;;;;;;;27.83;15.95;;;;;;;;;;5076113;28;20074;-62
2023/04/23 04:29:26;;;;;;;18.02;9.82;;;;;;;;;;5075731;28;20045;-62
2023/04/23 04:31:52;;;;;;;11.52;8.05;;;;;;;;;;5076199;28;20068;-62
2023/04/23 04:34:17;;;;;;;9.93;7.55;;;;;;;;;;5076307;28;20033;-71
2023/04/23 04:36:43;;;;;;;11.85;8.30;;;;;;;;;;5076385;28;20025;-72
2023/04/23 04:39:08;;;;;;;14.13;8.02;;;;;;;;;;5076285;28;20443;-71
2023/04/23 04:41:35;;;;;;;28.42;13.32;;;;;;;;;;5076526;28;20112;-71
2023/04/23 04:44:00;;;;;;;26.42;13.63;;;;;;;;;;5058511;28;20064;-72
2023/04/23 04:46:27;;;;;;;28.60;13.15;;;;;;;;;;5076216;28;20056;-71
2023/04/23 04:48:53;;;;;;;36.20;15.60;;;;;;;;;;5075574;28;20112;-62
2023/04/23 04:51:18;;;;;;;41.10;17.00;;;;;;;;;;5075750;28;20108;-62
2023/04/23 04:53:44;;;;;;;26.35;12.68;;;;;;;;;;5057433;28;20017;-62
2023/04/23 04:56:09;;;;;;;30.42;13.32;;;;;;;;;;5075977;28;20032;-62
2023/04/23 04:58:35;;;;;;;35.30;15.25;;;;;;;;;;5057640;28;20031;-62
2023/04/23 05:01:00;;;;;;;21.30;11.15;;;;;;;;;;5058033;28;20020;-63
2023/04/23 05:03:26;;;;;;;15.30;8.48;;;;;;;;;;5075455;28;20097;-62
2023/04/23 05:05:53;;;;;;;8.57;6.78;;;;;;;;;;5075434;28;20108;-62
2023/04/23 05:08:20;;;;;;;9.43;6.93;;;;;;;;;;5075768;28;20013;-62
2023/04/23 05:10:46;;;;;;;9.00;6.40;;;;;;;;;;5075447;28;20359;-62
2023/04/23 05:13:12;;;;;;;8.48;6.47;;;;;;;;;;5075353;28;20031;-62
2023/04/23 05:15:37;;;;;;;8.13;6.68;;;;;;;;;;5075379;28;20478;-62
2023/04/23 05:18:03;;;;;;;9.90;6.72;;;;;;;;;;5075294;28;20052;-62
2023/04/23 05:20:28;;;;;;;12.13;7.05;;;;;;;;;;5075214;28;20036;-62
2023/04/23 05:22:54;;;;;;;12.93;8.38;;;;;;;;;;5075454;28;20081;-62
2023/04/23 05:25:19;;;;;;;14.55;8.68;;;;;;;;;;5052928;28;20056;-63
2023/04/23 05:27:44;;;;;;;16.85;9.68;;;;;;;;;;5053772;28;20071;-63
2023/04/23 05:30:10;;;;;;;18.92;9.85;;;;;;;;;;5055331;28;20025;-63
2023/04/23 05:32:35;;;;;;;18.98;10.23;;;;;;;;;;5055303;28;20017;-63
2023/04/23 05:35:02;;;;;;;20.88;10.68;;;;;;;;;;5053715;28;20021;-63
2023/04/23 05:37:28;;;;;;;19.55;10.95;;;;;;;;;;5054281;28;20037;-63
2023/04/23 05:39:53;;;;;;;16.00;9.52;;;;;;;;;;5055041;28;20040;-72
2023/04/23 05:42:19;;;;;;;12.98;8.48;;;;;;;;;;5054837;28;20017;-71
2023/04/23 05:44:44;;;;;;;14.48;7.75;;;;;;;;;;5054975;28;20078;-63
2023/04/23 05:47:10;;;;;;;8.15;6.38;;;;;;;;;;5081623;22;20429;-72
2023/04/23 05:49:35;;;;;;;8.10;6.57;;;;;;;;;;5096225;22;20052;-63
2023/04/23 05:52:02;;;;;;;9.75;6.80;;;;;;;;;;5094935;22;20052;-63
2023/04/23 05:54:27;;;;;;;9.15;7.00;;;;;;;;;;5071088;22;20114;-72
2023/04/23 05:59:33;;;;;;;11.07;7.47;;;;;;;;;;5069216;23;20055;-63
2023/04/23 06:01:58;;;;;;;10.35;7.50;;;;;;;;;;5074385;28;20028;-63
2023/04/23 06:04:23;;;;;;;12.15;7.22;;;;;;;;;;5073675;28;20020;-63
2023/04/23 06:06:49;;;;;;;13.00;7.63;;;;;;;;;;5074275;28;20071;-63
2023/04/23 06:09:14;;;;;;;8.85;5.88;;;;;;;;;;5074242;28;20024;-64
2023/04/23 06:11:40;;;;;;;10.02;5.88;;;;;;;;;;5074512;28;20028;-63
2023/04/23 06:14:05;;;;;;;7.90;5.63;;;;;;;;;;5074171;28;20055;-63
2023/04/23 06:16:30;;;;;;;7.10;5.43;;;;;;;;;;5074049;28;20017;-64
2023/04/23 06:18:56;;;;;;;10.82;5.78;;;;;;;;;;5073612;28;20024;-64
2023/04/23 06:21:21;;;;;;;6.95;6.05;;;;;;;;;;5074355;28;20029;-64
2023/04/23 06:23:47;;;;;;;12.50;6.47;;;;;;;;;;5073830;28;20024;-63
2023/04/23 06:26:12;;;;;;;15.65;6.60;;;;;;;;;;5073679;28;20056;-63
2023/04/23 06:28:38;;;;;;;15.73;6.65;;;;;;;;;;5055772;28;20024;-63
2023/04/23 06:31:22;;;;;;;11.98;5.35;;;;;;;;;;5074127;28;20383;-64
2023/04/23 06:33:48;;;;;;;10.60;5.43;;;;;;;;;;5040028;28;20029;-63
2023/04/23 06:36:13;;;;;;;15.25;6.10;;;;;;;;;;5074150;28;20059;-63
2023/04/23 06:38:39;;;;;;;13.57;6.43;;;;;;;;;;5055190;28;20040;-63
2023/04/23 06:41:05;;;;;;;17.15;7.10;;;;;;;;;;5073814;28;20020;-63
2023/04/23 06:43:31;;;;;;;12.18;5.97;;;;;;;;;;5074049;28;20355;-63
2023/04/23 06:46:15;;;;;;;9.77;5.75;;;;;;;;;;5073605;28;20119;-64
2023/04/23 06:48:40;;;;;;;8.48;5.55;;;;;;;;;;5073707;28;20442;-64
2023/04/23 06:51:06;;;;;;;11.25;6.22;;;;;;;;;;5073963;28;20383;-63
2023/04/23 06:53:31;;;;;;;10.40;5.72;;;;;;;;;;5073986;28;20028;-63
2023/04/23 06:55:57;;;;;;;13.63;6.25;;;;;;;;;;5073480;28;20062;-63
2023/04/23 06:58:29;;;;;;;12.63;6.47;;;;;;;;;;5055495;28;20059;-63
2023/04/23 07:00:55;;;;;;;10.85;5.80;;;;;;;;;;5055615;28;20075;-63
2023/04/23 07:03:20;;;;;;;8.55;5.95;;;;;;;;;;5055354;28;20028;-63
2023/04/23 07:05:46;;;;;;;8.98;5.13;;;;;;;;;;5055573;28;20219;-63
2023/04/23 07:08:12;;;;;;;9.80;5.25;;;;;;;;;;5073779;28;20071;-64
2023/04/23 07:10:37;;;;;;;8.60;5.07;;;;;;;;;;5055548;28;20029;-63
2023/04/23 07:13:02;;;;;;;6.47;4.47;;;;;;;;;;5055482;28;20123;-63
2023/04/23 07:15:28;;;;;;;7.55;4.63;;;;;;;;;;5072970;28;20021;-63
2023/04/23 07:17:53;;;;;;;6.40;4.93;;;;;;;;;;5073047;28;20493;-63
2023/04/23 07:20:18;;;;;;;10.52;5.32;;;;;;;;;;5072939;28;20150;-64
2023/04/23 07:22:45;;;;;;;8.15;4.65;;;;;;;;;;5055264;28;20029;-63
2023/04/23 07:25:10;;;;;;;6.28;4.65;;;;;;;;;;5073085;28;20036;-63
2023/04/23 07:27:36;;;;;;;4.28;3.80;;;;;;;;;;5073271;28;20016;-63
2023/04/23 07:30:01;;;;;;;5.10;3.67;;;;;;;;;;5073145;28;20517;-63
2023/04/23 07:32:26;;;;;;;4.55;3.13;;;;;;;;;;5073088;28;20042;-64
2023/04/23 07:34:53;;;;;;;5.53;3.47;;;;;;;;;;5072571;28;20067;-63
2023/04/23 07:37:20;;;;;;;5.18;3.13;;;;;;;;;;5072812;28;20479;-64
2023/04/23 07:39:45;;;;;;;3.55;3.22;;;;;;;;;;5073165;28;20052;-64
2023/04/23 07:42:11;;;;;;;4.22;3.45;;;;;;;;;;5072934;28;20443;-64
2023/04/23 07:44:37;;;;;;;5.57;2.97;;;;;;;;;;5055224;28;20032;-63
2023/04/23 07:47:02;;;;;;;3.83;3.28;;;;;;;;;;5072769;28;20024;-64
2023/04/23 07:49:27;;;;;;;3.58;2.97;;;;;;;;;;5074795;28;20025;-63
2023/04/23 07:51:53;;;;;;;3.22;2.95;;;;;;;;;;5076312;28;20123;-64
2023/04/23 07:54:25;;;;;;;3.67;3.10;;;;;;;;;;5076608;28;20017;-64
2023/04/23 07:56:50;;;;;;;3.70;2.88;;;;;;;;;;5076528;28;20035;-63
2023/04/23 07:59:16;;;;;;;3.30;3.03;;;;;;;;;;5076408;28;20394;-64
2023/04/23 08:01:41;;;;;;;3.78;3.13;;;;;;;;;;5058447;28;20028;-64
2023/04/23 08:04:07;;;;;;;3.22;3.03;;;;;;;;;;5076612;28;20029;-64
2023/04/23 08:06:34;;;;;;;2.50;2.40;;;;;;;;;;5076299;28;20033;-63
2023/04/23 08:09:00;;;;;;;3.17;2.72;;;;;;;;;;5076630;28;20098;-63
2023/04/23 08:11:25;;;;;;;4.35;3.22;;;;;;;;;;5076142;28;20029;-64
2023/04/23 08:13:50;;;;;;;3.25;2.90;;;;;;;;;;5058203;28;20032;-63
2023/04/23 08:16:16;;;;;;;3.55;2.72;;;;;;;;;;5075853;28;20032;-64
2023/04/23 08:18:41;;;;;;;2.92;2.63;;;;;;;;;;5075611;28;20394;-63
2023/04/23 08:21:06;;;;;;;4.05;2.80;;;;;;;;;;5057755;28;20017;-64
2023/04/23 08:23:32;;;;;;;3.00;2.40;;;;;;;;;;5075896;28;20025;-64
2023/04/23 08:25:57;;;;;;;2.63;2.53;;;;;;;;;;5075864;28;20435;-64
2023/04/23 08:28:22;;;;;;;3.17;2.45;;;;;;;;;;5075481;28;20097;-64
2023/04/23 08:30:48;;;;;;;4.28;3.00;;;;;;;;;;5075251;28;20571;-63
2023/04/23 08:33:13;;;;;;;2.55;2.35;;;;;;;;;;5075588;28;20033;-64
2023/04/23 08:35:39;;;;;;;3.38;2.60;;;;;;;;;;5076018;28;20055;-63
2023/04/23 08:38:04;;;;;;;3.28;2.55;;;;;;;;;;5075864;28;20029;-64
2023/04/23 08:40:30;;;;;;;2.80;2.60;;;;;;;;;;5057975;28;20466;-64
2023/04/23 08:42:56;;;;;;;3.58;2.60;;;;;;;;;;5075742;28;20035;-64
2023/04/23 08:45:21;;;;;;;2.53;2.30;;;;;;;;;;5075705;28;20440;-64
2023/04/23 08:47:47;;;;;;;2.55;2.35;;;;;;;;;;5075769;28;20028;-63
2023/04/23 08:50:16;;;;;;;2.95;2.40;;;;;;;;;;5075113;28;20383;-64
2023/04/23 08:52:46;;;;;;;2.85;2.58;;;;;;;;;;5075614;28;20116;-64
2023/04/23 08:55:13;;;;;;;3.63;2.60;;;;;;;;;;5075579;28;20024;-63
2023/04/23 08:57:39;;;;;;;2.33;2.13;;;;;;;;;;5075492;28;20386;-64
2023/04/23 09:00:06;;;;;;;3.65;3.05;;;;;;;;;;5074177;28;20120;-64
2023/04/23 09:02:35;;;;;;;3.70;2.53;;;;;;;;;;5075086;28;20111;-63
2023/04/23 09:05:01;;;;;;;4.20;2.72;;;;;;;;;;5074955;28;20024;-63
2023/04/23 09:07:27;;;;;;;3.53;3.10;;;;;;;;;;5074650;28;20028;-63
2023/04/23 09:09:52;;;;;;;2.72;2.53;;;;;;;;;;5056740;28;20510;-63
2023/04/23 09:12:19;;;;;;;2.70;2.58;;;;;;;;;;5074678;28;20032;-64
2023/04/23 09:14:45;;;;;;;2.97;2.50;;;;;;;;;;5066848;28;20032;-61
2023/04/23 09:17:11;;;;;;;2.50;2.30;;;;;;;;;;5056978;28;20036;-62
2023/04/23 09:19:38;;;;;;;2.47;2.28;;;;;;;;;;5057179;28;20471;-62
2023/04/23 09:22:03;;;;;;;2.60;2.38;;;;;;;;;;5075072;28;20028;-62
2023/04/23 09:24:29;;;;;;;2.03;1.92;;;;;;;;;;5056692;28;20019;-62
2023/04/23 09:26:56;;;;;;;3.45;2.40;;;;;;;;;;5056588;28;20020;-62
2023/04/23 09:29:29;;;;;;;3.35;2.00;;;;;;;;;;5054909;28;20027;-62
2023/04/23 09:31:55;;;;;;;2.50;2.35;;;;;;;;;;5054858;28;20035;-62
2023/04/23 09:34:21;;;;;;;3.10;2.47;;;;;;;;;;5056987;28;20152;-62
2023/04/23 09:36:49;;;;;;;4.22;2.75;;;;;;;;;;5037025;28;20029;-62
2023/04/23 09:39:16;;;;;;;3.50;2.38;;;;;;;;;;5054768;28;20082;-62
2023/04/23 09:41:41;;;;;;;5.13;2.58;;;;;;;;;;5054738;28;20036;-62
2023/04/23 09:44:11;;;;;;;3.65;2.80;;;;;;;;;;5074340;28;20367;-62
2023/04/23 09:46:36;;;;;;;2.42;2.28;;;;;;;;;;5056590;28;20060;-62
2023/04/23 09:49:03;;;;;;;2.80;2.53;;;;;;;;;;5074162;28;20059;-61
2023/04/23 09:51:32;;;;;;;2.53;2.40;;;;;;;;;;5074422;28;20040;-64
2023/04/23 09:53:57;;;;;;;2.80;2.60;;;;;;;;;;5073844;28;20097;-68
2023/04/23 09:56:23;;;;;;;3.00;2.70;;;;;;;;;;5074152;28;20017;-68
2023/04/23 09:58:48;;;;;;;2.92;2.60;;;;;;;;;;5056132;28;20352;-69
2023/04/23 10:01:14;;;;;;;2.83;2.63;;;;;;;;;;5056392;28;20028;-69
2023/04/23 10:03:43;;;;;;;2.50;2.30;;;;;;;;;;5055598;28;20111;-69
2023/04/23 10:06:17;;;;;;;2.72;2.53;;;;;;;;;;5056124;28;20028;-68
2023/04/23 10:08:43;;;;;;;3.40;2.47;;;;;;;;;;5074004;28;20020;-68
2023/04/23 10:11:09;;;;;;;3.92;2.53;;;;;;;;;;5074141;28;20431;-68
2023/04/23 10:13:35;;;;;;;2.38;2.17;;;;;;;;;;5074116;28;20025;-71
2023/04/23 10:16:01;;;;;;;2.88;2.60;;;;;;;;;;5074699;28;20043;-68
2023/04/23 10:18:28;;;;;;;3.03;2.78;;;;;;;;;;5074056;28;20024;-68
2023/04/23 10:20:53;;;;;;;4.50;2.20;;;;;;;;;;5055525;28;20039;-69
2023/04/23 10:23:20;;;;;;;2.55;2.15;;;;;;;;;;5073117;28;20455;-69
2023/04/23 10:25:46;;;;;;;2.40;2.20;;;;;;;;;;5073014;28;20104;-69
2023/04/23 10:28:12;;;;;;;2.65;2.45;;;;;;;;;;5073235;28;20691;-69
2023/04/23 10:30:38;;;;;;;3.60;2.10;;;;;;;;;;5073279;28;20017;-69
2023/04/23 10:33:03;;;;;;;1.92;1.83;;;;;;;;;;5072833;28;20374;-69
2023/04/23 10:35:29;;;;;;;2.38;2.17;;;;;;;;;;5054618;28;20033;-69
2023/04/23 10:37:54;;;;;;;1.40;1.30;;;;;;;;;;5054799;28;20024;-69
2023/04/23 10:40:22;;;;;;;3.50;2.08;;;;;;;;;;5072340;28;20454;-69
2023/04/23 10:42:48;;;;;;;3.95;2.33;;;;;;;;;;5073038;28;20090;-68
2023/04/23 10:45:17;;;;;;;2.85;2.40;;;;;;;;;;5072878;28;20036;-68
2023/04/23 10:47:44;;;;;;;4.78;2.58;;;;;;;;;;5072642;28;20082;-69
2023/04/23 10:50:23;;;;;;;3.92;2.30;;;;;;;;;;5072506;28;20107;-69
2023/04/23 10:52:52;;;;;;;5.18;2.35;;;;;;;;;;5074003;28;20451;-69
2023/04/23 10:55:22;;;;;;;2.88;2.20;;;;;;;;;;5074022;28;20082;-69
2023/04/23 10:57:54;;;;;;;2.78;2.35;;;;;;;;;;5055540;28;20028;-69
2023/04/23 11:00:20;;;;;;;5.03;2.50;;;;;;;;;;5055400;28;20075;-68
2023/04/23 11:02:45;;;;;;;2.60;2.30;;;;;;;;;;5055669;28;20482;-68
2023/04/23 11:05:11;;;;;;;2.47;1.95;;;;;;;;;;5073440;28;20082;-68
2023/04/23 11:07:38;;;;;;;2.22;2.00;;;;;;;;;;5073856;28;20070;-69
2023/04/23 11:10:10;;;;;;;5.78;2.47;;;;;;;;;;5073553;28;20024;-68
2023/04/23 11:12:37;;;;;;;3.50;2.17;;;;;;;;;;5073161;28;20025;-68
2023/04/23 11:15:30;;;;;;;3.70;2.40;;;;;;;;;;5073738;28;20072;-68
2023/04/23 11:17:58;;;;;;;3.17;2.33;;;;;;;;;;5070365;28;20097;-69
2023/04/23 11:20:24;;;;;;;2.63;2.42;;;;;;;;;;5073163;28;20024;-68
2023/04/23 11:22:50;;;;;;;2.53;2.35;;;;;;;;;;5055532;28;20410;-69
2023/04/23 11:25:18;;;;;;;4.75;2.08;;;;;;;;;;5076846;28;20044;-69
2023/04/23 11:27:44;;;;;;;2.00;1.83;;;;;;;;;;5077942;28;20025;-68
2023/04/23 11:30:12;;;;;;;2.25;2.05;;;;;;;;;;5077378;28;20089;-69
2023/04/23 11:32:38;;;;;;;2.13;1.80;;;;;;;;;;5077864;28;20025;-69
2023/04/23 11:35:04;;;;;;;2.10;2.00;;;;;;;;;;5077214;28;20382;-68
2023/04/23 11:37:29;;;;;;;1.92;1.83;;;;;;;;;;5058732;28;20032;-68
2023/04/23 11:39:55;;;;;;;2.35;2.10;;;;;;;;;;5077423;28;20430;-68
2023/04/23 11:42:21;;;;;;;2.55;2.35;;;;;;;;;;5077258;28;20036;-69
2023/04/23 11:44:47;;;;;;;3.20;1.83;;;;;;;;;;5077272;28;20031;-68
2023/04/23 11:47:13;;;;;;;2.58;2.10;;;;;;;;;;5077292;28;20094;-69
2023/04/23 11:49:41;;;;;;;2.38;1.77;;;;;;;;;;5059098;28;20033;-68
2023/04/23 11:52:07;;;;;;;2.13;2.03;;;;;;;;;;5077200;28;20032;-68
2023/04/23 11:54:33;;;;;;;2.65;2.13;;;;;;;;;;5059152;28;20360;-68
2023/04/23 11:56:58;;;;;;;2.08;1.90;;;;;;;;;;5077360;28;20451;-68
2023/04/23 11:59:24;;;;;;;2.05;1.80;;;;;;;;;;5076748;28;20048;-68
2023/04/23 12:01:50;;;;;;;2.55;1.77;;;;;;;;;;5076752;28;20440;-68
2023/04/23 12:04:20;;;;;;;2.15;1.90;;;;;;;;;;5076733;28;20044;-68
2023/04/23 12:06:46;;;;;;;2.42;2.22;;;;;;;;;;5058585;28;20044;-68
2023/04/23 12:09:12;;;;;;;2.50;2.28;;;;;;;;;;5076592;28;20078;-68
2023/04/23 12:11:39;;;;;;;3.47;2.25;;;;;;;;;;5076948;28;20028;-68
2023/04/23 12:14:04;;;;;;;3.10;1.90;;;;;;;;;;5076785;28;20032;-68
2023/04/23 12:16:34;;;;;;;2.28;2.17;;;;;;;;;;5076484;28;20043;-68
2023/04/23 12:18:59;;;;;;;1.93;1.83;;;;;;;;;;5058941;28;20064;-68
2023/04/23 12:21:27;;;;;;;1.77;1.67;;;;;;;;;;5076322;28;20044;-68
2023/04/23 12:23:52;;;;;;;2.28;2.10;;;;;;;;;;5076349;28;20032;-69
2023/04/23 12:26:19;;;;;;;1.95;1.85;;;;;;;;;;5076526;28;20459;-68
2023/04/23 12:28:50;;;;;;;2.40;1.98;;;;;;;;;;5058138;28;20063;-68
2023/04/23 12:31:20;;;;;;;2.35;2.10;;;;;;;;;;5058137;28;20116;-68
2023/04/23 12:33:45;;;;;;;3.15;1.92;;;;;;;;;;5076525;28;20035;-68
2023/04/23 12:36:13;;;;;;;2.28;2.08;;;;;;;;;;5058129;28;20433;-68
2023/04/23 12:38:39;;;;;;;2.63;1.73;;;;;;;;;;5076377;28;20041;-68
2023/04/23 12:41:04;;;;;;;2.25;2.05;;;;;;;;;;5058082;28;20027;-68
2023/04/23 12:43:29;;;;;;;2.58;2.40;;;;;;;;;;5076594;28;20041;-68
2023/04/23 12:45:55;;;;;;;1.92;1.83;;;;;;;;;;5075713;28;20028;-68
2023/04/23 12:48:20;;;;;;;2.42;2.22;;;;;;;;;;5076146;28;20027;-68
2023/04/23 12:50:46;;;;;;;2.35;2.03;;;;;;;;;;5057729;28;20119;-68
2023/04/23 12:53:11;;;;;;;4.35;2.03;;;;;;;;;;5075723;28;20101;-68
2023/04/23 12:55:41;;;;;;;1.92;1.83;;;;;;;;;;5075581;28;20390;-68
2023/04/23 12:58:07;;;;;;;1.90;1.80;;;;;;;;;;5058629;28;20028;-68
2023/04/23 13:00:33;;;;;;;1.85;1.75;;;;;;;;;;5075140;28;20097;-68
2023/04/23 13:02:58;;;;;;;2.17;1.98;;;;;;;;;;5075519;28;20058;-68
2023/04/23 13:05:23;;;;;;;1.92;1.83;;;;;;;;;;5057546;28;20037;-68
2023/04/23 13:07:48;;;;;;;1.45;1.35;;;;;;;;;;5057627;28;20107;-68
2023/04/23 13:10:14;;;;;;;2.75;1.80;;;;;;;;;;5075490;28;20524;-68
2023/04/23 13:12:40;;;;;;;3.30;1.80;;;;;;;;;;5075442;28;20032;-68
2023/04/23 13:15:06;;;;;;;2.50;1.60;;;;;;;;;;5075699;28;20036;-68
2023/04/23 13:17:31;;;;;;;1.58;1.48;;;;;;;;;;5075250;28;20033;-68
2023/04/23 13:19:57;;;;;;;1.58;1.48;;;;;;;;;;5057361;28;20070;-68
2023/04/23 13:22:27;;;;;;;4.65;2.17;;;;;;;;;;5075547;28;20378;-68
2023/04/23 13:24:52;;;;;;;1.77;1.60;;;;;;;;;;5057021;28;20063;-68
2023/04/23 13:27:18;;;;;;;1.83;1.73;;;;;;;;;;5074821;28;20064;-68
2023/04/23 13:29:43;;;;;;;1.83;1.70;;;;;;;;;;5075190;28;20024;-68
2023/04/23 13:32:08;;;;;;;2.30;2.08;;;;;;;;;;5057492;28;20017;-68
2023/04/23 13:34:34;;;;;;;1.77;1.60;;;;;;;;;;5075007;28;20110;-68
2023/04/23 13:37:04;;;;;;;1.75;1.65;;;;;;;;;;5057465;28;20029;-68
2023/04/23 13:39:30;;;;;;;1.88;1.77;;;;;;;;;;5040957;28;20386;-68
2023/04/23 13:41:55;;;;;;;2.55;1.73;;;;;;;;;;5074881;28;20033;-68
2023/04/23 13:44:20;;;;;;;3.28;2.17;;;;;;;;;;5075071;28;20374;-68
2023/04/23 13:46:46;;;;;;;2.05;1.95;;;;;;;;;;5074191;28;20041;-68
2023/04/23 13:49:11;;;;;;;1.95;1.85;;;;;;;;;;5074695;28;20056;-68
2023/04/23 13:51:36;;;;;;;2.30;1.90;;;;;;;;;;5074936;28;20028;-68
2023/04/23 13:54:02;;;;;;;1.88;1.75;;;;;;;;;;5074588;28;20032;-68
2023/04/23 13:56:29;;;;;;;1.92;1.80;;;;;;;;;;5074831;28;20067;-67
2023/04/23 13:58:58;;;;;;;2.05;1.77;;;;;;;;;;5074501;28;20098;-68
2023/04/23 14:01:24;;;;;;;3.10;1.90;;;;;;;;;;5055068;28;20029;-67
2023/04/23 14:03:49;;;;;;;1.83;1.70;;;;;;;;;;5054463;28;20467;-67
2023/04/23 14:06:14;;;;;;;2.47;1.83;;;;;;;;;;5054470;28;20037;-67
2023/04/23 14:08:40;;;;;;;1.90;1.80;;;;;;;;;;5065716;28;20043;-67
2023/04/23 14:11:05;;;;;;;1.95;1.85;;;;;;;;;;5074039;28;20025;-67
2023/04/23 14:13:31;;;;;;;2.42;1.88;;;;;;;;;;5056232;28;20028;-67
2023/04/23 14:15:57;;;;;;;2.05;1.95;;;;;;;;;;5056219;28;20111;-67
2023/04/23 14:18:23;;;;;;;2.42;2.22;;;;;;;;;;5073911;28;20037;-68
2023/04/23 14:20:49;;;;;;;2.53;1.83;;;;;;;;;;5055561;28;20114;-68
2023/04/23 14:23:15;;;;;;;2.03;1.92;;;;;;;;;;5073969;28;20028;-68
2023/04/23 14:25:40;;;;;;;2.55;1.90;;;;;;;;;;5039070;28;20039;-68
2023/04/23 14:28:22;;;;;;;2.75;1.70;;;;;;;;;;5073791;28;20027;-68
2023/04/23 14:30:48;;;;;;;1.98;1.67;;;;;;;;;;5073834;28;20039;-68
2023/04/23 14:33:13;;;;;;;1.98;1.88;;;;;;;;;;5073747;28;20025;-68